sensor_id;sensor_type;location;lat;lon;timestamp;temperature;humidity
31975;DHT22;18500;43.618;1.474;2023-05-10T06:10:01;11.40;99.90
31975;DHT22;18500;43.618;1.474;2023-05-10T06:12:27;11.10;99.90
31975;DHT22;18500;43.618;1.474;2023-05-10T06:14:52;11.50;1.00
31975;DHT22;18500;43.618;1.474;2023-05-10T06:17:18;11.70;99.90
31975;DHT22;18500;43.618;1.474;2023-05-10T06:19:43;11.90;67.40
31975;DHT22;18500;43.618;1.474;2023-05-10T06:22:09;11.90;1.00
31975;DHT22;18500;43.618;1.474;2023-05-10T06:24:35;11.90;99.90
31975;DHT22;18500;43.618;1.474;2023-05-10T06:27:00;11.90;1.00
31975;DHT22;18500;43.618;1.474;2023-05-10T06:29:27;12.00;26.30
31975;DHT22;18500;43.618;1.474;2023-05-10T06:31:53;11.90;99.90
31975;DHT22;18500;43.618;1.474;2023-05-10T06:34:19;12.00;99.90
31975;DHT22;18500;43.618;1.474;2023-05-10T06:36:45;11.90;99.90
31975;DHT22;18500;43.618;1.474;2023-05-10T06:39:10;11.80;99.90
31975;DHT22;18500;43.618;1.474;2023-05-10T06:41:37;11.70;99.90
31975;DHT22;18500;43.618;1.474;2023-05-10T06:44:03;11.70;99.90
31975;DHT22;18500;43.618;1.474;2023-05-10T06:46:29;11.90;99.90
31975;DHT22;18500;43.618;1.474;2023-05-10T06:48:54;12.10;99.90
31975;DHT22;18500;43.618;1.474;2023-05-10T06:51:20;12.10;99.90
31975;DHT22;18500;43.618;1.474;2023-05-10T06:53:46;12.30;99.90
31975;DHT22;18500;43.618;1.474;2023-05-10T06:56:12;12.30;99.90
31975;DHT22;18500;43.618;1.474;2023-05-10T06:58:38;12.30;99.90
31975;DHT22;18500;43.618;1.474;2023-05-10T07:01:04;12.40;99.90
31975;DHT22;18500;43.618;1.474;2023-05-10T07:03:31;12.30;99.90
31975;DHT22;18500;43.618;1.474;2023-05-10T07:06:01;12.20;99.90
31975;DHT22;18500;43.618;1.474;2023-05-10T07:08:29;12.10;99.90
31975;DHT22;18500;43.618;1.474;2023-05-10T07:11:00;12.20;99.90
31975;DHT22;18500;43.618;1.474;2023-05-10T07:13:25;12.40;99.90
31975;DHT22;18500;43.618;1.474;2023-05-10T07:15:51;12.60;99.90
31975;DHT22;18500;43.618;1.474;2023-05-10T07:18:17;12.50;99.90
31975;DHT22;18500;43.618;1.474;2023-05-10T07:20:42;12.70;99.90
31975;DHT22;18500;43.618;1.474;2023-05-10T07:23:08;12.70;99.90
31975;DHT22;18500;43.618;1.474;2023-05-10T07:25:33;12.70;99.90
31975;DHT22;18500;43.618;1.474;2023-05-10T07:27:59;12.70;99.90
31975;DHT22;18500;43.618;1.474;2023-05-10T07:30:25;13.30;99.90
31975;DHT22;18500;43.618;1.474;2023-05-10T07:32:50;13.20;99.90
31975;DHT22;18500;43.618;1.474;2023-05-10T07:35:16;13.00;99.90
31975;DHT22;18500;43.618;1.474;2023-05-10T07:37:42;13.00;99.90
31975;DHT22;18500;43.618;1.474;2023-05-10T07:40:08;12.80;99.90
31975;DHT22;18500;43.618;1.474;2023-05-10T07:42:33;12.50;99.90
31975;DHT22;18500;43.618;1.474;2023-05-10T07:44:59;12.70;99.90
31975;DHT22;18500;43.618;1.474;2023-05-10T07:47:25;13.00;99.90
31975;DHT22;18500;43.618;1.474;2023-05-10T07:49:51;12.50;99.90
31975;DHT22;18500;43.618;1.474;2023-05-10T07:52:16;12.10;99.90
31975;DHT22;18500;43.618;1.474;2023-05-10T07:54:42;12.40;40.50
31975;DHT22;18500;43.618;1.474;2023-05-10T07:57:08;12.60;1.00
31975;DHT22;18500;43.618;1.474;2023-05-10T07:59:33;12.50;1.00
31975;DHT22;18500;43.618;1.474;2023-05-10T08:01:59;12.60;99.90
31975;DHT22;18500;43.618;1.474;2023-05-10T08:04:27;11.80;1.00
31975;DHT22;18500;43.618;1.474;2023-05-10T08:06:52;12.20;99.90
31975;DHT22;18500;43.618;1.474;2023-05-10T08:09:18;12.10;99.90
31975;DHT22;18500;43.618;1.474;2023-05-10T08:11:49;12.20;1.00
31975;DHT22;18500;43.618;1.474;2023-05-10T08:14:14;12.30;99.90
31975;DHT22;18500;43.618;1.474;2023-05-10T08:16:40;12.20;99.90
31975;DHT22;18500;43.618;1.474;2023-05-10T08:19:06;12.10;99.90
31975;DHT22;18500;43.618;1.474;2023-05-10T08:21:31;12.50;1.00
31975;DHT22;18500;43.618;1.474;2023-05-10T08:23:57;12.30;99.90
31975;DHT22;18500;43.618;1.474;2023-05-10T08:26:23;13.50;99.90
31975;DHT22;18500;43.618;1.474;2023-05-10T08:28:48;13.20;99.90
31975;DHT22;18500;43.618;1.474;2023-05-10T08:31:15;12.70;99.90
31975;DHT22;18500;43.618;1.474;2023-05-10T08:33:41;13.30;99.90
31975;DHT22;18500;43.618;1.474;2023-05-10T08:36:06;13.50;99.90
31975;DHT22;18500;43.618;1.474;2023-05-10T08:38:32;13.50;93.80
31975;DHT22;18500;43.618;1.474;2023-05-10T08:40:58;13.40;48.00
31975;DHT22;18500;43.618;1.474;2023-05-10T08:43:28;13.60;27.10
31975;DHT22;18500;43.618;1.474;2023-05-10T08:45:55;13.80;16.40
31975;DHT22;18500;43.618;1.474;2023-05-10T08:48:24;14.40;3.50
31975;DHT22;18500;43.618;1.474;2023-05-10T08:50:54;14.60;1.00
31975;DHT22;18500;43.618;1.474;2023-05-10T08:53:24;14.80;1.00
31975;DHT22;18500;43.618;1.474;2023-05-10T08:55:51;14.70;1.00
31975;DHT22;18500;43.618;1.474;2023-05-10T08:58:17;14.40;1.00
31975;DHT22;18500;43.618;1.474;2023-05-10T09:00:45;14.40;1.00
31975;DHT22;18500;43.618;1.474;2023-05-10T09:03:11;14.40;1.00
31975;DHT22;18500;43.618;1.474;2023-05-10T09:05:37;14.20;1.00
31975;DHT22;18500;43.618;1.474;2023-05-10T09:08:03;14.20;1.00
31975;DHT22;18500;43.618;1.474;2023-05-10T09:10:29;14.40;1.00
31975;DHT22;18500;43.618;1.474;2023-05-10T09:12:56;14.70;1.00
31975;DHT22;18500;43.618;1.474;2023-05-10T09:15:22;15.10;1.00
31975;DHT22;18500;43.618;1.474;2023-05-10T09:17:49;15.30;1.00
31975;DHT22;18500;43.618;1.474;2023-05-10T09:20:15;15.70;1.00
31975;DHT22;18500;43.618;1.474;2023-05-10T09:22:42;15.50;1.00
31975;DHT22;18500;43.618;1.474;2023-05-10T09:25:15;15.10;1.00
31975;DHT22;18500;43.618;1.474;2023-05-10T09:27:46;15.30;1.00
31975;DHT22;18500;43.618;1.474;2023-05-10T09:30:16;15.40;1.00
31975;DHT22;18500;43.618;1.474;2023-05-10T09:32:45;15.20;1.00
31975;DHT22;18500;43.618;1.474;2023-05-10T09:35:20;15.50;1.00
31975;DHT22;18500;43.618;1.474;2023-05-10T09:37:47;15.90;1.00
31975;DHT22;18500;43.618;1.474;2023-05-10T09:40:16;15.80;1.00
31975;DHT22;18500;43.618;1.474;2023-05-10T09:43:02;15.70;1.00
31975;DHT22;18500;43.618;1.474;2023-05-10T09:45:31;15.20;1.00
31975;DHT22;18500;43.618;1.474;2023-05-10T09:47:58;15.10;1.00
31975;DHT22;18500;43.618;1.474;2023-05-10T09:50:25;15.20;1.00
31975;DHT22;18500;43.618;1.474;2023-05-10T09:52:59;15.00;1.00
31975;DHT22;18500;43.618;1.474;2023-05-10T09:58:06;15.20;1.00
31975;DHT22;18500;43.618;1.474;2023-05-10T10:00:40;15.20;1.00
31975;DHT22;18500;43.618;1.474;2023-05-10T10:03:06;15.40;1.00
31975;DHT22;18500;43.618;1.474;2023-05-10T10:05:40;15.80;1.00
31975;DHT22;18500;43.618;1.474;2023-05-10T10:08:06;16.20;1.00
31975;DHT22;18500;43.618;1.474;2023-05-10T10:10:32;16.90;1.00
31975;DHT22;18500;43.618;1.474;2023-05-10T10:12:58;16.20;1.00
31975;DHT22;18500;43.618;1.474;2023-05-10T10:15:25;15.60;1.00
31975;DHT22;18500;43.618;1.474;2023-05-10T10:17:52;15.30;1.00
31975;DHT22;18500;43.618;1.474;2023-05-10T10:20:20;15.80;1.00
31975;DHT22;18500;43.618;1.474;2023-05-10T10:22:47;16.40;1.00
31975;DHT22;18500;43.618;1.474;2023-05-10T10:25:15;16.80;1.00
31975;DHT22;18500;43.618;1.474;2023-05-10T10:30:46;16.20;1.00
31975;DHT22;18500;43.618;1.474;2023-05-10T10:35:48;16.20;1.00
31975;DHT22;18500;43.618;1.474;2023-05-10T10:38:15;16.40;1.00
31975;DHT22;18500;43.618;1.474;2023-05-10T10:40:41;16.40;1.00
31975;DHT22;18500;43.618;1.474;2023-05-10T10:43:24;16.80;1.00
31975;DHT22;18500;43.618;1.474;2023-05-10T10:46:13;16.50;1.00
31975;DHT22;18500;43.618;1.474;2023-05-10T10:48:40;16.50;1.00
31975;DHT22;18500;43.618;1.474;2023-05-10T10:51:06;16.20;1.00
31975;DHT22;18500;43.618;1.474;2023-05-10T10:53:32;16.50;1.00
31975;DHT22;18500;43.618;1.474;2023-05-10T10:56:09;16.70;1.00
31975;DHT22;18500;43.618;1.474;2023-05-10T10:58:36;17.00;1.00
31975;DHT22;18500;43.618;1.474;2023-05-10T11:03:39;17.20;1.00
31975;DHT22;18500;43.618;1.474;2023-05-10T11:06:04;16.50;1.00
31975;DHT22;18500;43.618;1.474;2023-05-10T11:08:39;16.00;1.00
31975;DHT22;18500;43.618;1.474;2023-05-10T11:11:07;15.60;1.00
31975;DHT22;18500;43.618;1.474;2023-05-10T11:13:41;13.80;1.00
31975;DHT22;18500;43.618;1.474;2023-05-10T11:16:17;13.20;99.90
31975;DHT22;18500;43.618;1.474;2023-05-10T11:18:59;13.20;99.90
31975;DHT22;18500;43.618;1.474;2023-05-10T11:21:27;13.50;1.00
31975;DHT22;18500;43.618;1.474;2023-05-10T11:23:55;13.20;1.00
31975;DHT22;18500;43.618;1.474;2023-05-10T11:26:32;13.30;1.00
31975;DHT22;18500;43.618;1.474;2023-05-10T11:28:58;13.70;1.00
31975;DHT22;18500;43.618;1.474;2023-05-10T11:31:26;13.40;49.10
31975;DHT22;18500;43.618;1.474;2023-05-10T11:33:56;13.60;1.00
31975;DHT22;18500;43.618;1.474;2023-05-10T11:36:32;13.70;1.00
31975;DHT22;18500;43.618;1.474;2023-05-10T11:38:58;13.80;1.00
31975;DHT22;18500;43.618;1.474;2023-05-10T11:41:24;13.30;99.90
31975;DHT22;18500;43.618;1.474;2023-05-10T11:43:51;13.30;99.90
31975;DHT22;18500;43.618;1.474;2023-05-10T11:46:19;13.40;99.90
31975;DHT22;18500;43.618;1.474;2023-05-10T11:48:50;13.10;99.90
31975;DHT22;18500;43.618;1.474;2023-05-10T11:51:20;13.60;1.00
31975;DHT22;18500;43.618;1.474;2023-05-10T11:53:46;14.10;99.90
31975;DHT22;18500;43.618;1.474;2023-05-10T11:56:12;14.90;1.00
31975;DHT22;18500;43.618;1.474;2023-05-10T11:58:38;15.00;45.90
31975;DHT22;18500;43.618;1.474;2023-05-10T12:01:06;15.40;1.00
31975;DHT22;18500;43.618;1.474;2023-05-10T12:03:32;15.40;1.00
31975;DHT22;18500;43.618;1.474;2023-05-10T12:05:58;15.70;1.00
31975;DHT22;18500;43.618;1.474;2023-05-10T12:08:26;15.70;1.00
31975;DHT22;18500;43.618;1.474;2023-05-10T12:10:52;16.20;1.00
31975;DHT22;18500;43.618;1.474;2023-05-10T12:13:19;16.10;1.00
31975;DHT22;18500;43.618;1.474;2023-05-10T12:15:45;15.70;1.00
31975;DHT22;18500;43.618;1.474;2023-05-10T12:18:13;15.60;1.00
31975;DHT22;18500;43.618;1.474;2023-05-10T12:20:39;15.70;1.00
31975;DHT22;18500;43.618;1.474;2023-05-10T12:23:07;16.00;1.00
31975;DHT22;18500;43.618;1.474;2023-05-10T12:25:34;16.10;1.00
31975;DHT22;18500;43.618;1.474;2023-05-10T12:28:03;16.90;1.00
31975;DHT22;18500;43.618;1.474;2023-05-10T12:30:31;17.20;1.00
31975;DHT22;18500;43.618;1.474;2023-05-10T12:33:14;20.30;1.00
31975;DHT22;18500;43.618;1.474;2023-05-10T12:35:50;24.20;1.00
31975;DHT22;18500;43.618;1.474;2023-05-10T12:38:25;27.10;1.00
31975;DHT22;18500;43.618;1.474;2023-05-10T12:40:51;26.00;1.00
31975;DHT22;18500;43.618;1.474;2023-05-10T12:43:16;24.00;1.00
31975;DHT22;18500;43.618;1.474;2023-05-10T12:45:42;25.10;1.00
31975;DHT22;18500;43.618;1.474;2023-05-10T12:48:08;20.60;1.00
31975;DHT22;18500;43.618;1.474;2023-05-10T12:50:33;21.40;1.00
31975;DHT22;18500;43.618;1.474;2023-05-10T12:52:59;22.60;1.00
31975;DHT22;18500;43.618;1.474;2023-05-10T12:55:24;22.30;1.00
31975;DHT22;18500;43.618;1.474;2023-05-10T12:57:50;24.90;1.00
31975;DHT22;18500;43.618;1.474;2023-05-10T13:00:16;21.80;1.00
31975;DHT22;18500;43.618;1.474;2023-05-10T13:02:42;21.80;1.00
31975;DHT22;18500;43.618;1.474;2023-05-10T13:05:07;19.10;1.00
31975;DHT22;18500;43.618;1.474;2023-05-10T13:07:33;19.10;1.00
31975;DHT22;18500;43.618;1.474;2023-05-10T13:09:59;18.70;1.00
31975;DHT22;18500;43.618;1.474;2023-05-10T13:12:24;22.60;1.00
31975;DHT22;18500;43.618;1.474;2023-05-10T13:14:50;19.70;1.00
31975;DHT22;18500;43.618;1.474;2023-05-10T13:17:15;24.70;1.00
31975;DHT22;18500;43.618;1.474;2023-05-10T13:19:41;27.70;1.00
31975;DHT22;18500;43.618;1.474;2023-05-10T13:22:07;28.90;1.00
31975;DHT22;18500;43.618;1.474;2023-05-10T13:24:32;28.20;1.00
31975;DHT22;18500;43.618;1.474;2023-05-10T13:26:58;28.00;1.00
31975;DHT22;18500;43.618;1.474;2023-05-10T13:29:24;26.60;1.00
31975;DHT22;18500;43.618;1.474;2023-05-10T13:31:49;24.90;1.00
31975;DHT22;18500;43.618;1.474;2023-05-10T13:34:15;22.30;1.00
31975;DHT22;18500;43.618;1.474;2023-05-10T13:36:41;20.50;1.00
31975;DHT22;18500;43.618;1.474;2023-05-10T13:39:06;19.20;1.00
31975;DHT22;18500;43.618;1.474;2023-05-10T13:41:32;18.50;1.00
31975;DHT22;18500;43.618;1.474;2023-05-10T13:43:58;22.60;1.00
31975;DHT22;18500;43.618;1.474;2023-05-10T13:46:24;26.60;1.00
31975;DHT22;18500;43.618;1.474;2023-05-10T13:48:49;25.20;1.00
31975;DHT22;18500;43.618;1.474;2023-05-10T13:51:15;20.90;1.00
31975;DHT22;18500;43.618;1.474;2023-05-10T13:53:41;19.20;1.00
31975;DHT22;18500;43.618;1.474;2023-05-10T13:56:06;20.60;1.00
31975;DHT22;18500;43.618;1.474;2023-05-10T13:58:32;20.50;1.00
31975;DHT22;18500;43.618;1.474;2023-05-10T14:00:58;19.10;1.00
31975;DHT22;18500;43.618;1.474;2023-05-10T14:03:23;18.10;1.00
31975;DHT22;18500;43.618;1.474;2023-05-10T14:05:49;17.40;1.00
31975;DHT22;18500;43.618;1.474;2023-05-10T14:08:15;17.30;1.00
31975;DHT22;18500;43.618;1.474;2023-05-10T14:10:41;16.70;1.00
31975;DHT22;18500;43.618;1.474;2023-05-10T14:13:06;17.20;1.00
31975;DHT22;18500;43.618;1.474;2023-05-10T14:15:33;18.60;1.00
31975;DHT22;18500;43.618;1.474;2023-05-10T14:17:58;22.50;1.00
31975;DHT22;18500;43.618;1.474;2023-05-10T14:20:24;20.50;1.00
31975;DHT22;18500;43.618;1.474;2023-05-10T14:22:50;19.20;1.00
31975;DHT22;18500;43.618;1.474;2023-05-10T14:25:16;19.10;1.00
31975;DHT22;18500;43.618;1.474;2023-05-10T14:27:41;19.30;1.00
31975;DHT22;18500;43.618;1.474;2023-05-10T14:30:07;19.80;1.00
31975;DHT22;18500;43.618;1.474;2023-05-10T14:32:33;18.60;1.00
31975;DHT22;18500;43.618;1.474;2023-05-10T14:34:59;18.30;1.00
31975;DHT22;18500;43.618;1.474;2023-05-10T14:37:25;18.10;1.00
31975;DHT22;18500;43.618;1.474;2023-05-10T14:39:51;17.90;1.00
31975;DHT22;18500;43.618;1.474;2023-05-10T14:42:17;17.80;1.00
31975;DHT22;18500;43.618;1.474;2023-05-10T14:44:43;17.70;1.00
31975;DHT22;18500;43.618;1.474;2023-05-10T14:47:09;17.60;1.00
31975;DHT22;18500;43.618;1.474;2023-05-10T14:49:34;17.90;1.00
31975;DHT22;18500;43.618;1.474;2023-05-10T14:52:00;18.10;1.00
31975;DHT22;18500;43.618;1.474;2023-05-10T14:54:26;17.40;1.00
31975;DHT22;18500;43.618;1.474;2023-05-10T14:56:51;17.50;1.00
31975;DHT22;18500;43.618;1.474;2023-05-10T14:59:17;17.60;1.00
31975;DHT22;18500;43.618;1.474;2023-05-10T15:01:42;17.80;1.00
31975;DHT22;18500;43.618;1.474;2023-05-10T15:04:08;17.90;1.00
31975;DHT22;18500;43.618;1.474;2023-05-10T15:06:34;17.30;1.00
31975;DHT22;18500;43.618;1.474;2023-05-10T15:09:01;17.90;1.00
31975;DHT22;18500;43.618;1.474;2023-05-10T15:11:27;18.40;1.00
31975;DHT22;18500;43.618;1.474;2023-05-10T15:13:53;18.40;1.00
31975;DHT22;18500;43.618;1.474;2023-05-10T15:16:19;18.50;1.00
31975;DHT22;18500;43.618;1.474;2023-05-10T15:18:45;18.30;1.00
31975;DHT22;18500;43.618;1.474;2023-05-10T15:21:11;18.40;1.00
31975;DHT22;18500;43.618;1.474;2023-05-10T15:23:37;18.20;1.00
31975;DHT22;18500;43.618;1.474;2023-05-10T15:26:03;18.00;1.00
31975;DHT22;18500;43.618;1.474;2023-05-10T15:28:29;18.00;1.00
31975;DHT22;18500;43.618;1.474;2023-05-10T15:30:55;18.00;1.00
31975;DHT22;18500;43.618;1.474;2023-05-10T15:33:21;17.60;1.00
31975;DHT22;18500;43.618;1.474;2023-05-10T15:35:47;17.10;1.00
31975;DHT22;18500;43.618;1.474;2023-05-10T15:38:13;16.90;1.00
31975;DHT22;18500;43.618;1.474;2023-05-10T15:40:38;17.00;1.00
31975;DHT22;18500;43.618;1.474;2023-05-10T15:43:04;17.00;1.00
31975;DHT22;18500;43.618;1.474;2023-05-10T15:45:30;17.10;1.00
31975;DHT22;18500;43.618;1.474;2023-05-10T15:47:57;17.00;1.00
31975;DHT22;18500;43.618;1.474;2023-05-10T15:50:24;16.70;1.00
31975;DHT22;18500;43.618;1.474;2023-05-10T15:52:49;16.40;1.00
31975;DHT22;18500;43.618;1.474;2023-05-10T15:55:16;16.40;1.00
31975;DHT22;18500;43.618;1.474;2023-05-10T15:57:42;16.60;1.00
31975;DHT22;18500;43.618;1.474;2023-05-10T16:00:09;16.70;1.00
31975;DHT22;18500;43.618;1.474;2023-05-10T16:02:35;17.10;1.00
31975;DHT22;18500;43.618;1.474;2023-05-10T16:05:02;17.20;1.00
31975;DHT22;18500;43.618;1.474;2023-05-10T16:07:27;17.10;1.00
31975;DHT22;18500;43.618;1.474;2023-05-10T16:09:53;17.10;1.00
31975;DHT22;18500;43.618;1.474;2023-05-10T16:12:19;17.00;1.00
31975;DHT22;18500;43.618;1.474;2023-05-10T16:14:45;17.00;1.00
31975;DHT22;18500;43.618;1.474;2023-05-10T16:17:11;17.10;1.00
31975;DHT22;18500;43.618;1.474;2023-05-10T16:19:36;17.10;1.00
31975;DHT22;18500;43.618;1.474;2023-05-10T16:22:02;17.00;1.00
31975;DHT22;18500;43.618;1.474;2023-05-10T16:24:28;17.40;1.00
31975;DHT22;18500;43.618;1.474;2023-05-10T16:26:53;17.50;1.00
31975;DHT22;18500;43.618;1.474;2023-05-10T16:29:19;17.50;1.00
31975;DHT22;18500;43.618;1.474;2023-05-10T16:31:45;17.20;1.00
31975;DHT22;18500;43.618;1.474;2023-05-10T16:34:11;16.70;1.00
31975;DHT22;18500;43.618;1.474;2023-05-10T16:36:37;16.60;1.00
31975;DHT22;18500;43.618;1.474;2023-05-10T16:39:03;16.40;1.00
31975;DHT22;18500;43.618;1.474;2023-05-10T16:41:32;16.20;1.00
31975;DHT22;18500;43.618;1.474;2023-05-10T16:43:58;16.20;1.00
31975;DHT22;18500;43.618;1.474;2023-05-10T16:46:25;16.20;1.00
31975;DHT22;18500;43.618;1.474;2023-05-10T16:48:50;16.10;1.00
31975;DHT22;18500;43.618;1.474;2023-05-10T16:51:16;16.00;1.00
31975;DHT22;18500;43.618;1.474;2023-05-10T16:53:42;15.90;1.00
31975;DHT22;18500;43.618;1.474;2023-05-10T16:56:07;16.00;1.00
31975;DHT22;18500;43.618;1.474;2023-05-10T16:58:33;15.90;1.00
31975;DHT22;18500;43.618;1.474;2023-05-10T17:00:59;16.40;1.00
31975;DHT22;18500;43.618;1.474;2023-05-10T17:03:24;16.60;1.00
31975;DHT22;18500;43.618;1.474;2023-05-10T17:05:50;16.40;1.00
31975;DHT22;18500;43.618;1.474;2023-05-10T17:08:16;16.40;1.00
31975;DHT22;18500;43.618;1.474;2023-05-10T17:10:41;16.40;1.00
31975;DHT22;18500;43.618;1.474;2023-05-10T17:13:07;16.30;1.00
31975;DHT22;18500;43.618;1.474;2023-05-10T17:15:35;16.20;1.00
31975;DHT22;18500;43.618;1.474;2023-05-10T17:18:02;16.10;1.00
31975;DHT22;18500;43.618;1.474;2023-05-10T17:20:28;16.00;1.00
31975;DHT22;18500;43.618;1.474;2023-05-10T17:22:53;15.90;1.00
31975;DHT22;18500;43.618;1.474;2023-05-10T17:25:19;15.90;1.00
31975;DHT22;18500;43.618;1.474;2023-05-10T17:27:45;16.00;1.00
31975;DHT22;18500;43.618;1.474;2023-05-10T17:30:11;15.80;1.00
31975;DHT22;18500;43.618;1.474;2023-05-10T17:32:37;15.70;1.00
31975;DHT22;18500;43.618;1.474;2023-05-10T17:35:04;15.60;1.00
31975;DHT22;18500;43.618;1.474;2023-05-10T17:37:30;15.40;1.00
31975;DHT22;18500;43.618;1.474;2023-05-10T17:39:58;15.30;1.00
31975;DHT22;18500;43.618;1.474;2023-05-10T17:42:24;15.00;99.90
31975;DHT22;18500;43.618;1.474;2023-05-10T17:44:49;15.10;1.00
31975;DHT22;18500;43.618;1.474;2023-05-10T17:47:16;15.40;1.00
31975;DHT22;18500;43.618;1.474;2023-05-10T17:49:42;15.60;1.00
31975;DHT22;18500;43.618;1.474;2023-05-10T17:52:07;15.80;1.00
31975;DHT22;18500;43.618;1.474;2023-05-10T17:54:33;15.40;1.00
31975;DHT22;18500;43.618;1.474;2023-05-10T17:56:59;15.20;1.00
31975;DHT22;18500;43.618;1.474;2023-05-10T17:59:26;15.00;1.00
31975;DHT22;18500;43.618;1.474;2023-05-10T18:01:51;15.00;1.00
31975;DHT22;18500;43.618;1.474;2023-05-10T18:04:17;14.90;1.00
31975;DHT22;18500;43.618;1.474;2023-05-10T18:06:43;14.70;1.00
31975;DHT22;18500;43.618;1.474;2023-05-10T18:09:08;14.70;1.00
31975;DHT22;18500;43.618;1.474;2023-05-10T18:11:34;14.70;1.00
31975;DHT22;18500;43.618;1.474;2023-05-10T18:14:01;14.60;1.00
31975;DHT22;18500;43.618;1.474;2023-05-10T18:16:26;14.60;1.00
31975;DHT22;18500;43.618;1.474;2023-05-10T18:18:52;14.60;1.00
31975;DHT22;18500;43.618;1.474;2023-05-10T18:21:18;14.60;1.00
31975;DHT22;18500;43.618;1.474;2023-05-10T18:23:43;14.60;1.00
31975;DHT22;18500;43.618;1.474;2023-05-10T18:26:09;14.60;1.00
31975;DHT22;18500;43.618;1.474;2023-05-10T18:28:35;14.60;1.00
31975;DHT22;18500;43.618;1.474;2023-05-10T18:31:01;14.60;1.00
31975;DHT22;18500;43.618;1.474;2023-05-10T18:33:27;14.50;1.00
31975;DHT22;18500;43.618;1.474;2023-05-10T18:35:53;14.50;1.00
31975;DHT22;18500;43.618;1.474;2023-05-10T18:38:19;14.50;1.00
31975;DHT22;18500;43.618;1.474;2023-05-10T18:40:44;14.60;1.00
31975;DHT22;18500;43.618;1.474;2023-05-10T18:43:10;14.20;1.00
31975;DHT22;18500;43.618;1.474;2023-05-10T18:45:36;14.00;1.00
31975;DHT22;18500;43.618;1.474;2023-05-10T18:48:03;12.80;99.90
31975;DHT22;18500;43.618;1.474;2023-05-10T18:50:29;12.30;99.90
31975;DHT22;18500;43.618;1.474;2023-05-10T18:52:54;12.30;99.90
31975;DHT22;18500;43.618;1.474;2023-05-10T18:55:22;12.10;99.90
31975;DHT22;18500;43.618;1.474;2023-05-10T18:57:48;12.00;1.00
31975;DHT22;18500;43.618;1.474;2023-05-10T19:00:13;12.10;1.00
31975;DHT22;18500;43.618;1.474;2023-05-10T19:02:40;12.10;99.90
31975;DHT22;18500;43.618;1.474;2023-05-10T19:05:06;12.00;1.00
31975;DHT22;18500;43.618;1.474;2023-05-10T19:07:32;12.10;1.00
31975;DHT22;18500;43.618;1.474;2023-05-10T19:09:58;12.20;1.00
31975;DHT22;18500;43.618;1.474;2023-05-10T19:12:24;12.20;99.90
31975;DHT22;18500;43.618;1.474;2023-05-10T19:14:49;12.30;99.90
31975;DHT22;18500;43.618;1.474;2023-05-10T19:17:15;12.30;99.90
31975;DHT22;18500;43.618;1.474;2023-05-10T19:19:41;12.40;99.90
31975;DHT22;18500;43.618;1.474;2023-05-10T19:22:07;12.50;99.90
31975;DHT22;18500;43.618;1.474;2023-05-10T19:24:34;12.50;99.90
31975;DHT22;18500;43.618;1.474;2023-05-10T19:27:00;12.40;41.20
31975;DHT22;18500;43.618;1.474;2023-05-10T19:29:26;12.70;1.00
31975;DHT22;18500;43.618;1.474;2023-05-10T19:31:51;12.70;1.00
31975;DHT22;18500;43.618;1.474;2023-05-10T19:34:18;12.80;1.00
31975;DHT22;18500;43.618;1.474;2023-05-10T19:36:44;12.80;1.00
31975;DHT22;18500;43.618;1.474;2023-05-10T19:39:10;12.90;99.90
31975;DHT22;18500;43.618;1.474;2023-05-10T19:41:36;12.80;99.90
31975;DHT22;18500;43.618;1.474;2023-05-10T19:44:02;12.90;99.90
31975;DHT22;18500;43.618;1.474;2023-05-10T19:46:28;12.80;99.90
31975;DHT22;18500;43.618;1.474;2023-05-10T19:48:54;12.90;17.10
31975;DHT22;18500;43.618;1.474;2023-05-10T19:51:19;12.90;1.00
31975;DHT22;18500;43.618;1.474;2023-05-10T19:53:45;13.00;1.00
31975;DHT22;18500;43.618;1.474;2023-05-10T19:56:10;13.00;99.90
31975;DHT22;18500;43.618;1.474;2023-05-10T19:58:37;12.80;99.90
31975;DHT22;18500;43.618;1.474;2023-05-10T20:01:02;12.80;99.90
31975;DHT22;18500;43.618;1.474;2023-05-10T20:03:33;13.00;9.70
31975;DHT22;18500;43.618;1.474;2023-05-10T20:05:59;12.80;1.00
31975;DHT22;18500;43.618;1.474;2023-05-10T20:08:25;12.90;1.00
31975;DHT22;18500;43.618;1.474;2023-05-10T20:10:51;12.80;1.00
31975;DHT22;18500;43.618;1.474;2023-05-10T20:13:17;12.70;99.90
31975;DHT22;18500;43.618;1.474;2023-05-10T20:15:42;12.40;1.00
31975;DHT22;18500;43.618;1.474;2023-05-10T20:18:08;11.80;21.90
31975;DHT22;18500;43.618;1.474;2023-05-10T20:20:34;11.80;99.90
31975;DHT22;18500;43.618;1.474;2023-05-10T20:23:00;11.60;1.00
31975;DHT22;18500;43.618;1.474;2023-05-10T20:25:25;11.60;1.00
31975;DHT22;18500;43.618;1.474;2023-05-10T20:27:51;11.60;1.00
31975;DHT22;18500;43.618;1.474;2023-05-10T20:30:17;11.50;1.00
31975;DHT22;18500;43.618;1.474;2023-05-10T20:32:43;11.50;2.70
31975;DHT22;18500;43.618;1.474;2023-05-10T20:35:09;11.70;29.20
31975;DHT22;18500;43.618;1.474;2023-05-10T20:37:34;11.70;54.40
31975;DHT22;18500;43.618;1.474;2023-05-10T20:40:02;11.70;94.60
31975;DHT22;18500;43.618;1.474;2023-05-10T20:42:28;11.70;95.70
31975;DHT22;18500;43.618;1.474;2023-05-10T20:44:54;11.90;99.90
31975;DHT22;18500;43.618;1.474;2023-05-10T20:47:19;11.90;99.90
31975;DHT22;18500;43.618;1.474;2023-05-10T20:49:47;12.00;99.10
31975;DHT22;18500;43.618;1.474;2023-05-10T20:52:13;11.90;99.90
31975;DHT22;18500;43.618;1.474;2023-05-10T20:54:39;12.00;99.90
31975;DHT22;18500;43.618;1.474;2023-05-10T20:57:05;12.10;99.90
31975;DHT22;18500;43.618;1.474;2023-05-10T20:59:31;12.10;99.90
31975;DHT22;18500;43.618;1.474;2023-05-10T21:01:56;12.00;1.00
31975;DHT22;18500;43.618;1.474;2023-05-10T21:04:22;12.00;1.00
31975;DHT22;18500;43.618;1.474;2023-05-10T21:06:48;11.90;1.00
31975;DHT22;18500;43.618;1.474;2023-05-10T21:09:14;12.00;1.00
31975;DHT22;18500;43.618;1.474;2023-05-10T21:11:42;12.00;1.00
31975;DHT22;18500;43.618;1.474;2023-05-10T21:14:08;12.00;1.00
31975;DHT22;18500;43.618;1.474;2023-05-10T21:16:35;11.90;1.00
31975;DHT22;18500;43.618;1.474;2023-05-10T21:19:01;12.00;1.00
